Austin, Nevada
Current Conditions -  °F | °C
As of 11:56 PM on Saturday 25 Oct 2014 (Local Time) from KNFL Reporting Station
Clear Clear  
Wind Chill:   Ceiling: Unl
Heat Index:   Visibility: 10mi
Dew Point: -4°   Wind: 5mph
Humidity: 38%   Direction: 10°N
Pressure: 30.03"   Gusts: NA
Location:  39.49°N, 117.07°W
Report Text: KNFL 260656Z AUTO 01004KT 10SM CLR 09/M04 A3003 RMK AO2 SLP140 T00941044
Loading
Personal Weather Stations






























Interactive Weather Map
Tropical Storm Tracking
New forecast layout! Learn more

10-Day Weather Forecast

Advertisements
Track Severe Weather on mobile